createdAt,value
2018-06-29T00:05:45.940Z,23.9
2018-06-29T00:15:45.168Z,23.9
2018-06-29T00:25:44.397Z,23.9
2018-06-29T00:35:43.619Z,23.9
2018-06-29T00:45:42.843Z,23.9
2018-06-29T00:55:42.072Z,23.9
2018-06-29T01:05:41.296Z,23.9
2018-06-29T01:15:40.526Z,23.9
2018-06-29T01:25:39.747Z,23.9
2018-06-29T01:35:38.975Z,23.9
2018-06-29T01:45:38.199Z,23.9
2018-06-29T01:55:37.429Z,23.9
2018-06-29T02:05:36.652Z,23.9
2018-06-29T02:15:35.878Z,23.9
2018-06-29T02:25:35.104Z,23.9
2018-06-29T02:35:34.329Z,23.9
2018-06-29T02:45:33.558Z,23.9
2018-06-29T02:55:32.784Z,23.9
2018-06-29T03:05:32.007Z,23.9
2018-06-29T03:15:31.230Z,23.9
2018-06-29T03:25:30.456Z,23.9
2018-06-29T03:35:29.683Z,23.9
2018-06-29T03:45:28.909Z,23.9
2018-06-29T03:55:28.133Z,23.9
2018-06-29T04:05:27.360Z,23.9
2018-06-29T04:15:26.587Z,23.9
2018-06-29T04:25:25.809Z,23.9
2018-06-29T04:35:25.038Z,23.9
2018-06-29T04:45:24.260Z,23.9
2018-06-29T04:55:23.492Z,23.8
2018-06-29T05:05:22.709Z,23.8
2018-06-29T05:15:21.928Z,23.9
2018-06-29T05:25:21.156Z,23.9
2018-06-29T05:35:20.430Z,23.9
2018-06-29T05:45:19.605Z,23.9
2018-06-29T05:55:18.832Z,23.9
2018-06-29T06:05:18.056Z,23.7
2018-06-29T06:15:17.280Z,23.5
2018-06-29T06:25:16.512Z,23.4
2018-06-29T06:35:15.781Z,23.3
2018-06-29T06:45:14.953Z,23.2
2018-06-29T06:55:14.180Z,23.1
2018-06-29T07:05:13.403Z,23
2018-06-29T07:15:12.637Z,22.9
2018-06-29T07:25:11.853Z,22.8
2018-06-29T07:35:11.078Z,22.8
2018-06-29T07:45:10.302Z,22.8
2018-06-29T07:55:09.528Z,22.8
2018-06-29T08:05:08.758Z,22.9
2018-06-29T08:15:07.982Z,23
2018-06-29T08:25:07.221Z,23.1
2018-06-29T08:35:06.439Z,23.2
2018-06-29T08:45:05.663Z,23.2
2018-06-29T08:55:04.918Z,23.3
2018-06-29T09:05:04.176Z,23.3
2018-06-29T09:15:03.332Z,23.3
2018-06-29T09:25:02.577Z,23.4
2018-06-29T09:35:01.787Z,23.4
2018-06-29T09:45:01.005Z,23.4
2018-06-29T09:55:00.235Z,23.4
2018-06-29T10:04:59.461Z,23.5
2018-06-29T10:14:58.684Z,23.5
2018-06-29T10:24:57.910Z,23.6
2018-06-29T10:34:57.133Z,23.6
2018-06-29T10:44:56.378Z,23.6
2018-06-29T10:54:55.577Z,23.6
2018-06-29T11:04:54.803Z,23.6
2018-06-29T11:14:54.033Z,23.7
2018-06-29T11:24:53.253Z,23.8
2018-06-29T11:34:52.489Z,23.8
2018-06-29T11:44:51.698Z,23.9
2018-06-29T11:54:50.933Z,23.9
2018-06-29T12:04:50.146Z,23.9
2018-06-29T12:14:49.429Z,23.9
2018-06-29T12:24:48.597Z,23.9
2018-06-29T12:34:47.821Z,23.9
2018-06-29T12:44:47.045Z,23.9
2018-06-29T12:54:46.271Z,24
2018-06-29T13:04:45.559Z,24
2018-06-29T13:14:44.721Z,24.1
2018-06-29T13:24:43.948Z,24.1
2018-06-29T13:34:43.169Z,24.1
2018-06-29T13:44:42.396Z,24.1
2018-06-29T13:54:41.647Z,24.1
2018-06-29T14:04:40.842Z,24.1
2018-06-29T14:14:40.068Z,24.1
2018-06-29T14:24:39.292Z,24.1
2018-06-29T14:34:38.571Z,23.9
2018-06-29T14:44:37.743Z,23.7
2018-06-29T14:54:36.969Z,23.6
2018-06-29T15:04:36.201Z,23.4
2018-06-29T15:14:35.429Z,23.3
2018-06-29T15:24:34.663Z,23.3
2018-06-29T15:34:33.869Z,23.2
2018-06-29T15:44:33.103Z,23.1
2018-06-29T15:54:32.319Z,23.1
2018-06-29T16:04:31.548Z,22.9
2018-06-29T16:14:30.768Z,22.9
2018-06-29T16:24:29.995Z,22.8
2018-06-29T16:34:29.217Z,22.8
2018-06-29T16:44:28.452Z,22.9
2018-06-29T16:54:27.675Z,22.9
2018-06-29T17:04:26.896Z,22.9
2018-06-29T17:14:26.115Z,23
2018-06-29T17:24:25.344Z,23
2018-06-29T17:34:24.567Z,23.1
2018-06-29T17:44:23.839Z,23.1
2018-06-29T17:54:23.015Z,23.1
2018-06-29T18:04:22.270Z,23.1
2018-06-29T18:14:21.463Z,23.1
2018-06-29T18:24:20.693Z,23.2
2018-06-29T18:34:19.911Z,23.2
2018-06-29T18:44:19.136Z,23.2
2018-06-29T18:54:18.366Z,23.2
2018-06-29T19:04:17.584Z,23.2
2018-06-29T19:14:16.809Z,23.3
2018-06-29T19:24:16.036Z,23.3
2018-06-29T19:34:15.313Z,23.3
2018-06-29T19:44:14.535Z,23.3
2018-06-29T19:54:13.713Z,23.3
2018-06-29T20:04:12.935Z,23.3
2018-06-29T20:14:12.160Z,23.3
2018-06-29T20:24:11.383Z,23.3
2018-06-29T20:34:10.607Z,23.3
2018-06-29T20:44:09.832Z,23.4
2018-06-29T20:54:09.062Z,23.4
2018-06-29T21:04:08.282Z,23.4
2018-06-29T21:14:07.509Z,23.5
2018-06-29T21:24:06.731Z,23.5
2018-06-29T21:34:05.957Z,23.5
2018-06-29T21:44:05.182Z,23.6
2018-06-29T21:54:04.409Z,23.6
2018-06-29T22:04:03.630Z,23.6
2018-06-29T22:14:02.857Z,23.6
2018-06-29T22:24:02.082Z,23.6
2018-06-29T22:34:01.312Z,23.6
2018-06-29T22:44:00.633Z,23.6
2018-06-29T22:53:59.756Z,23.6
2018-06-29T23:03:58.988Z,23.6
2018-06-29T23:13:58.206Z,23.6
2018-06-29T23:23:57.441Z,23.6
2018-06-29T23:33:56.661Z,23.6
2018-06-29T23:43:55.889Z,23.7
2018-06-29T23:53:55.103Z,23.6
